Time;durP1;ratioP1;P1;durP2;ratioP2;P2;SDS_P1;SDS_P2;PMS_P1;PMS_P2;Temp;Humidity;BMP_temperature;BMP_pressure;BME280_temperature;BME280_humidity;BME280_pressure;Samples;Min_cycle;Max_cycle;Signal;HPM_P1;HPM_P2
2022/01/03 00:01:36;;;;;;;42.75;22.55;;;;;;;3.48;72.73;95849.94;5025635;28;20504;-78
2022/01/03 00:04:01;;;;;;;37.63;20.02;;;;;;;3.48;73.05;95843.75;5027750;28;20029;-78
2022/01/03 00:06:27;;;;;;;41.13;22.60;;;;;;;3.45;72.70;95840.38;5029411;28;20091;-77
2022/01/03 00:08:53;;;;;;;37.63;21.42;;;;;;;3.43;73.02;95833.53;5029513;28;20034;-77
2022/01/03 00:11:20;;;;;;;44.72;23.02;;;;;;;3.43;73.22;95829.03;5011648;28;20519;-77
2022/01/03 00:13:47;;;;;;;42.00;23.05;;;;;;;3.43;73.10;95831.69;5011768;28;20057;-79
2022/01/03 00:16:12;;;;;;;45.33;23.40;;;;;;;3.40;73.53;95823.16;5029214;28;20079;-76
2022/01/03 00:18:38;;;;;;;45.10;24.15;;;;;;;3.31;74.03;95814.97;5029354;28;20029;-75
2022/01/03 00:21:15;;;;;;;41.60;24.42;;;;;;;3.31;73.04;95814.13;5029452;28;20540;-77
2022/01/03 00:23:40;;;;;;;44.22;23.77;;;;;;;3.18;72.54;95811.59;5011684;28;20574;-77
2022/01/03 00:26:07;;;;;;;55.53;26.02;;;;;;;3.14;71.38;95810.19;4995350;28;20033;-76
2022/01/03 00:28:34;;;;;;;52.60;27.77;;;;;;;3.03;70.45;95809.19;5029143;28;20658;-77
2022/01/03 00:31:00;;;;;;;49.83;26.45;;;;;;;3.00;70.59;95805.97;5011819;28;20107;-76
2022/01/03 00:33:26;;;;;;;49.03;26.85;;;;;;;2.95;70.67;95811.63;5011024;28;20476;-76
2022/01/03 00:35:59;;;;;;;49.22;25.95;;;;;;;2.90;70.47;95824.41;5011254;28;20041;-76
2022/01/03 00:38:25;;;;;;;49.95;25.30;;;;;;;2.86;69.92;95823.78;5011184;28;20515;-77
2022/01/03 00:40:50;;;;;;;47.70;24.75;;;;;;;2.80;70.13;95822.47;5028791;28;20032;-78
2022/01/03 00:43:16;;;;;;;51.83;24.70;;;;;;;2.84;69.27;95831.84;4994658;28;20022;-77
2022/01/03 00:45:42;;;;;;;48.65;25.77;;;;;;;2.78;69.38;95829.69;5010785;28;20463;-79
2022/01/03 00:48:08;;;;;;;45.70;23.50;;;;;;;2.68;69.06;95834.84;4994242;28;20424;-76
2022/01/03 00:50:33;;;;;;;47.03;25.10;;;;;;;2.71;69.55;95812.56;5010331;28;20503;-77
2022/01/03 00:52:59;;;;;;;49.38;27.20;;;;;;;2.68;71.79;95811.00;5028705;28;20022;-76
2022/01/03 00:55:24;;;;;;;47.70;25.88;;;;;;;2.58;71.29;95805.56;4994226;28;20021;-76
2022/01/03 00:58:02;;;;;;;53.03;26.92;;;;;;;2.53;72.24;95799.78;5010094;28;20520;-78
2022/01/03 01:00:32;;;;;;;50.97;25.95;;;;;;;2.54;72.31;95793.53;5028439;28;20033;-76
2022/01/03 01:03:09;;;;;;;52.00;26.73;;;;;;;2.42;72.02;95784.72;4995680;28;20116;-78
2022/01/03 01:05:34;;;;;;;52.80;27.02;;;;;;;2.43;72.46;95788.22;5010768;28;20029;-78
2022/01/03 01:08:00;;;;;;;50.78;27.30;;;;;;;2.46;72.55;95791.47;5028069;28;20029;-77
2022/01/03 01:10:29;;;;;;;49.80;27.40;;;;;;;2.59;72.27;95786.09;4994202;28;20448;-77
2022/01/03 01:12:55;;;;;;;51.20;28.30;;;;;;;2.54;71.63;95782.09;5027866;28;20049;-77
2022/01/03 01:15:20;;;;;;;57.40;30.08;;;;;;;2.49;73.88;95782.44;5027335;28;20439;-76
2022/01/03 01:17:46;;;;;;;49.70;28.20;;;;;;;2.49;73.87;95785.09;5028185;28;20320;-76
2022/01/03 01:20:15;;;;;;;55.17;30.90;;;;;;;2.47;72.52;95787.84;5010280;28;20025;-76
2022/01/03 01:22:41;;;;;;;52.78;27.83;;;;;;;2.43;71.70;95789.06;5010435;28;20026;-77
2022/01/03 01:25:25;;;;;;;48.67;26.55;;;;;;;2.38;71.10;95788.56;5009884;28;20029;-76
2022/01/03 01:27:53;;;;;;;52.55;27.33;;;;;;;2.34;72.36;95782.66;5012628;28;20531;-75
2022/01/03 01:30:20;;;;;;;46.50;25.73;;;;;;;2.27;72.24;95775.31;5010400;28;20480;-78
2022/01/03 01:33:09;;;;;;;48.33;26.70;;;;;;;2.13;71.34;95774.53;5009641;28;20026;-75
2022/01/03 01:35:48;;;;;;;58.80;26.85;;;;;;;2.08;71.08;95777.53;5027584;28;20095;-77
2022/01/03 01:38:16;;;;;;;67.10;31.83;;;;;;;1.99;72.32;95772.94;5011087;28;20036;-76
2022/01/03 01:40:52;;;;;;;72.25;30.77;;;;;;;1.94;73.64;95777.72;5028614;28;20025;-77
2022/01/03 01:43:20;;;;;;;68.55;30.17;;;;;;;1.88;74.25;95764.97;5027960;28;20108;-77
2022/01/03 01:45:47;;;;;;;67.18;30.88;;;;;;;1.77;76.33;95766.63;5009840;28;20115;-77
2022/01/03 01:48:12;;;;;;;69.80;31.23;;;;;;;1.75;75.85;95765.88;4994007;28;20516;-76
2022/01/03 01:50:39;;;;;;;72.50;32.75;;;;;;;1.71;76.62;95769.69;5010279;28;20038;-77
2022/01/03 01:53:05;;;;;;;59.50;30.55;;;;;;;1.72;76.69;95772.25;5010093;28;20021;-76
2022/01/03 01:55:30;;;;;;;61.10;29.85;;;;;;;1.75;76.93;95765.03;5010141;28;20026;-76
2022/01/03 01:58:14;;;;;;;56.75;28.90;;;;;;;1.72;76.55;95766.97;5010015;28;20072;-76
2022/01/03 02:00:40;;;;;;;57.45;29.10;;;;;;;1.73;75.95;95757.22;4994705;28;20022;-76
2022/01/03 02:03:19;;;;;;;58.10;28.05;;;;;;;1.70;76.45;95749.50;4993585;28;20029;-76
2022/01/03 02:06:14;;;;;;;53.13;27.55;;;;;;;1.68;76.39;95732.91;4994247;28;20029;-76
2022/01/03 02:08:44;;;;;;;58.42;27.55;;;;;;;1.46;76.12;95730.06;5027708;28;20476;-76
2022/01/03 02:11:19;;;;;;;58.30;28.48;;;;;;;1.51;76.02;95727.09;4993678;28;20029;-77
2022/01/03 02:13:45;;;;;;;56.15;28.05;;;;;;;1.44;76.12;95716.13;4994015;28;20412;-75
2022/01/03 02:16:11;;;;;;;50.72;27.92;;;;;;;1.50;75.73;95720.09;4993008;28;20484;-76
2022/01/03 02:18:36;;;;;;;51.38;26.70;;;;;;;1.54;75.58;95716.28;5009665;28;20032;-76
2022/01/03 02:21:02;;;;;;;53.00;28.25;;;;;;;1.56;75.69;95716.16;5027105;28;20409;-76
2022/01/03 02:23:28;;;;;;;59.78;29.08;;;;;;;1.56;75.19;95714.38;5027283;28;20053;-76
2022/01/03 02:25:53;;;;;;;60.20;28.85;;;;;;;1.56;74.75;95713.53;5027680;28;20460;-78
2022/01/03 02:28:22;;;;;;;54.35;28.45;;;;;;;1.43;75.57;95718.88;5026476;28;20033;-76
2022/01/03 02:30:48;;;;;;;60.72;27.95;;;;;;;1.48;76.01;95712.28;5027573;28;20036;-76
2022/01/03 02:33:13;;;;;;;50.40;27.48;;;;;;;1.59;75.29;95714.16;5009513;28;20033;-75
2022/01/03 02:35:40;;;;;;;53.05;27.92;;;;;;;1.70;75.13;95718.63;5027306;28;20484;-76
2022/01/03 02:38:05;;;;;;;52.30;28.50;;;;;;;1.75;74.34;95713.00;5026752;28;20518;-75
2022/01/03 02:40:31;;;;;;;53.70;27.25;;;;;;;1.75;74.01;95702.41;5009826;28;20029;-76
2022/01/03 02:42:57;;;;;;;52.75;28.73;;;;;;;1.80;73.62;95699.41;4993047;28;20033;-77
2022/01/03 02:45:23;;;;;;;50.00;25.67;;;;;;;1.82;72.91;95698.34;5027069;28;20435;-77
2022/01/03 02:47:51;;;;;;;54.33;26.88;;;;;;;1.83;72.53;95697.41;5029580;28;20057;-77
2022/01/03 02:50:16;;;;;;;53.08;27.58;;;;;;;1.78;72.98;95696.03;4995563;28;20048;-78
2022/01/03 02:52:42;;;;;;;47.55;27.05;;;;;;;1.75;73.71;95707.72;5012244;28;20416;-77
2022/01/03 02:55:09;;;;;;;52.17;26.67;;;;;;;1.79;72.47;95698.56;5029850;28;20105;-77
2022/01/03 02:57:39;;;;;;;52.83;26.42;;;;;;;1.83;72.26;95697.41;5029014;28;20041;-77
2022/01/03 03:00:07;;;;;;;49.28;25.95;;;;;;;1.84;71.89;95685.84;5029571;28;20338;-78
2022/01/03 03:02:32;;;;;;;50.70;27.00;;;;;;;1.91;71.19;95690.66;5012537;28;20057;-76
2022/01/03 03:05:00;;;;;;;54.97;27.40;;;;;;;1.89;70.71;95666.97;5012435;28;20511;-77
2022/01/03 03:07:27;;;;;;;50.00;26.63;;;;;;;1.87;71.25;95678.66;5011611;28;20052;-77
2022/01/03 03:09:53;;;;;;;62.15;30.13;;;;;;;1.81;72.12;95686.06;5008808;28;20060;-76
2022/01/03 03:12:18;;;;;;;76.75;37.53;;;;;;;1.83;72.65;95681.53;5026224;28;20029;-76
2022/01/03 03:14:44;;;;;;;92.75;42.67;;;;;;;1.89;72.54;95682.00;5008821;28;20017;-77
2022/01/03 03:17:09;;;;;;;96.10;46.08;;;;;;;1.93;72.21;95683.47;5026151;28;20029;-77
2022/01/03 03:19:51;;;;;;;106.93;46.28;;;;;;;1.97;72.56;95684.91;5009276;28;20038;-77
2022/01/03 03:22:16;;;;;;;93.78;43.97;;;;;;;1.94;72.51;95685.13;5008585;28;20061;-78
2022/01/03 03:24:41;;;;;;;85.47;42.05;;;;;;;1.90;73.56;95683.69;5026057;28;20079;-76
2022/01/03 03:27:10;;;;;;;78.63;35.78;;;;;;;1.93;71.85;95683.47;5026907;28;20091;-76
2022/01/03 03:29:48;;;;;;;79.28;36.25;;;;;;;1.92;71.30;95681.78;4992629;28;20033;-77
2022/01/03 03:32:13;;;;;;;73.45;33.97;;;;;;;1.91;70.88;95683.56;5009168;28;20025;-76
2022/01/03 03:34:39;;;;;;;66.80;30.35;;;;;;;1.94;70.27;95685.13;5008268;28;20076;-76
2022/01/03 03:37:05;;;;;;;65.70;31.95;;;;;;;1.93;69.57;95672.88;5008594;28;20052;-76
2022/01/03 03:39:33;;;;;;;60.72;30.95;;;;;;;1.92;69.99;95681.78;5010642;28;20107;-78
2022/01/03 03:41:59;;;;;;;61.70;30.70;;;;;;;1.73;70.04;95684.03;4996347;28;20029;-78
2022/01/03 03:44:24;;;;;;;70.18;31.83;;;;;;;1.66;70.22;95681.97;5030200;28;20026;-77
2022/01/03 03:46:50;;;;;;;57.55;28.98;;;;;;;1.63;70.56;95687.47;5029948;28;20030;-76
2022/01/03 03:49:15;;;;;;;60.00;29.42;;;;;;;1.64;70.60;95681.22;5029697;28;20571;-79
2022/01/03 03:51:41;;;;;;;55.53;28.75;;;;;;;1.57;70.60;95678.19;5030349;28;20017;-79
2022/01/03 03:54:06;;;;;;;57.55;27.98;;;;;;;1.54;71.21;95667.84;5011966;28;20501;-76
2022/01/03 03:56:32;;;;;;;51.50;27.63;;;;;;;1.53;71.06;95680.22;5029270;28;20040;-77
2022/01/03 03:58:57;;;;;;;49.67;25.98;;;;;;;1.63;71.40;95684.84;5029477;28;20025;-77
2022/01/03 04:01:23;;;;;;;47.85;27.77;;;;;;;1.46;71.95;95676.34;5029311;28;20041;-76
2022/01/03 04:03:49;;;;;;;48.17;26.95;;;;;;;1.45;72.66;95672.03;5029332;28;20041;-76
2022/01/03 04:06:14;;;;;;;47.53;26.77;;;;;;;1.47;72.87;95665.66;5029500;28;20036;-76
2022/01/03 04:08:39;;;;;;;51.45;28.13;;;;;;;1.48;72.71;95669.16;5029081;28;20026;-76
2022/01/03 04:11:05;;;;;;;55.00;27.95;;;;;;;1.44;72.48;95673.81;5029094;28;20025;-77
2022/01/03 04:13:30;;;;;;;55.03;29.10;;;;;;;1.47;72.77;95670.94;5029185;28;20049;-77
2022/01/03 04:15:56;;;;;;;51.42;26.67;;;;;;;1.44;72.54;95683.53;5029373;28;20040;-78
2022/01/03 04:18:21;;;;;;;54.47;29.00;;;;;;;1.44;72.76;95672.97;5029561;28;20038;-77
2022/01/03 04:20:47;;;;;;;58.72;29.73;;;;;;;1.43;72.41;95671.31;4978928;28;20026;-76
2022/01/03 04:23:13;;;;;;;57.10;31.33;;;;;;;1.41;72.43;95674.06;5011976;28;20033;-77
2022/01/03 04:25:38;;;;;;;82.57;44.33;;;;;;;1.34;72.96;95668.38;5011278;28;20052;-77
2022/01/03 04:28:04;;;;;;;59.65;32.63;;;;;;;1.37;73.10;95669.94;4995308;28;20025;-77
2022/01/03 04:30:30;;;;;;;55.30;29.48;;;;;;;1.34;72.53;95668.38;5011220;28;20025;-77
2022/01/03 04:32:55;;;;;;;60.13;30.27;;;;;;;1.30;72.49;95672.22;5011224;28;20087;-78
2022/01/03 04:35:21;;;;;;;51.35;29.17;;;;;;;1.30;73.48;95677.50;5029602;28;20484;-76
2022/01/03 04:37:46;;;;;;;53.13;29.02;;;;;;;1.36;73.33;95662.97;5011141;28;20045;-78
2022/01/03 04:40:12;;;;;;;57.97;27.55;;;;;;;1.32;73.50;95665.00;5029367;28;20088;-77
2022/01/03 04:42:37;;;;;;;57.67;29.75;;;;;;;1.37;73.29;95671.75;5028790;28;20174;-77
2022/01/03 04:45:03;;;;;;;53.50;29.63;;;;;;;1.37;73.17;95685.78;5029289;28;20014;-78
2022/01/03 04:47:28;;;;;;;49.38;27.95;;;;;;;1.34;72.66;95686.03;5029164;28;20027;-77
2022/01/03 04:49:54;;;;;;;51.95;30.08;;;;;;;1.36;71.75;95686.75;5010221;28;20025;-77
2022/01/03 04:52:19;;;;;;;50.70;28.80;;;;;;;1.28;71.82;95692.63;4995380;28;20021;-77
2022/01/03 04:54:45;;;;;;;53.88;28.85;;;;;;;1.27;71.70;95704.16;5028872;28;20025;-77
2022/01/03 04:57:10;;;;;;;55.03;29.60;;;;;;;1.31;72.00;95699.47;5011115;28;20040;-77
2022/01/03 04:59:36;;;;;;;48.65;26.67;;;;;;;1.33;72.22;95698.41;5011060;28;20447;-76
2022/01/03 05:02:03;;;;;;;48.22;26.48;;;;;;;1.30;71.18;95680.16;5028549;28;20030;-76
2022/01/03 05:04:29;;;;;;;57.97;30.35;;;;;;;1.21;71.74;95694.03;5011078;28;20082;-77
2022/01/03 05:06:54;;;;;;;52.22;27.33;;;;;;;1.27;72.85;95690.94;5028319;28;20033;-77
2022/01/03 05:09:20;;;;;;;51.33;29.33;;;;;;;1.36;73.06;95689.41;5010450;28;20408;-76
2022/01/03 05:11:45;;;;;;;56.40;28.88;;;;;;;1.33;72.52;95684.34;5027861;28;20033;-77
2022/01/03 05:14:10;;;;;;;49.70;28.00;;;;;;;1.35;72.49;95683.25;5028295;28;20057;-77
2022/01/03 05:16:36;;;;;;;56.50;29.63;;;;;;;1.32;72.09;95683.50;5028033;28;20037;-77
2022/01/03 05:19:02;;;;;;;71.10;36.55;;;;;;;1.45;71.25;95682.59;5027886;28;20025;-77
2022/01/03 05:21:27;;;;;;;79.57;39.38;;;;;;;1.43;72.50;95687.16;5010513;28;20032;-76
2022/01/03 05:23:53;;;;;;;69.22;35.90;;;;;;;1.37;72.46;95683.16;5027856;28;20030;-77
2022/01/03 05:26:18;;;;;;;60.40;32.33;;;;;;;1.38;72.58;95684.00;5010099;28;20018;-77
2022/01/03 05:28:45;;;;;;;54.22;29.38;;;;;;;1.18;72.37;95679.25;5027817;28;20041;-77
2022/01/03 05:31:12;;;;;;;49.00;27.15;;;;;;;1.19;72.06;95674.81;5011091;28;20021;-77
2022/01/03 05:33:38;;;;;;;54.03;27.70;;;;;;;1.22;71.95;95664.00;5028794;28;20033;-77
2022/01/03 05:36:04;;;;;;;50.75;28.08;;;;;;;1.15;72.18;95670.69;5027945;28;20153;-78
2022/01/03 05:38:29;;;;;;;61.25;31.55;;;;;;;1.13;74.10;95680.53;5028211;28;20049;-76
2022/01/03 05:40:54;;;;;;;59.33;30.40;;;;;;;1.21;73.53;95678.19;5027608;28;20039;-77
2022/01/03 05:43:20;;;;;;;60.45;33.75;;;;;;;1.25;73.29;95684.91;5027638;28;20030;-76
2022/01/03 05:45:47;;;;;;;59.08;33.40;;;;;;;1.32;72.92;95680.84;5028090;28;20014;-77
2022/01/03 05:48:12;;;;;;;61.30;32.47;;;;;;;1.30;72.86;95676.66;5027820;28;20021;-77
2022/01/03 05:50:38;;;;;;;62.05;32.75;;;;;;;1.31;72.86;95665.09;5027934;28;20040;-76
2022/01/03 05:53:03;;;;;;;63.30;32.88;;;;;;;1.30;72.80;95677.50;5010274;28;20062;-76
2022/01/03 05:55:28;;;;;;;73.50;39.22;;;;;;;1.38;74.27;95684.84;5027926;28;20488;-77
2022/01/03 05:57:54;;;;;;;81.65;39.85;;;;;;;1.47;73.68;95684.16;5009736;28;20412;-78
2022/01/03 06:00:22;;;;;;;60.67;30.85;;;;;;;1.49;71.75;95697.28;5010163;28;20032;-76
2022/01/03 06:02:52;;;;;;;47.25;26.05;;;;;;;1.54;70.00;95695.13;5027407;28;20040;-76
2022/01/03 06:05:38;;;;;;;46.58;24.10;;;;;;;1.38;69.22;95692.78;5027474;28;20057;-77
2022/01/03 06:08:03;;;;;;;40.40;23.70;;;;;;;1.23;70.00;95692.09;5027022;28;20116;-77
2022/01/03 06:10:29;;;;;;;42.80;24.48;;;;;;;1.21;69.74;95694.03;5009922;28;20380;-77
2022/01/03 06:12:54;;;;;;;48.55;25.58;;;;;;;1.08;71.77;95696.72;4993062;28;20459;-76
2022/01/03 06:15:24;;;;;;;39.63;22.27;;;;;;;0.99;71.02;95700.88;5009769;28;20088;-76
2022/01/03 06:17:49;;;;;;;41.38;23.52;;;;;;;0.94;71.29;95697.72;5027363;28;20075;-76
2022/01/03 06:20:15;;;;;;;45.03;23.27;;;;;;;0.88;72.20;95699.00;5009259;28;20515;-77
2022/01/03 06:22:40;;;;;;;40.70;21.58;;;;;;;0.97;71.43;95705.41;5026919;28;20017;-76
2022/01/03 06:25:07;;;;;;;38.38;21.98;;;;;;;0.92;71.39;95707.56;5026662;28;20033;-77
2022/01/03 06:27:32;;;;;;;40.80;23.15;;;;;;;0.83;71.81;95701.97;5009088;28;20087;-77
2022/01/03 06:29:57;;;;;;;35.30;20.85;;;;;;;0.89;72.11;95699.88;5008894;28;20029;-76
2022/01/03 06:32:23;;;;;;;44.13;23.58;;;;;;;0.91;71.92;95700.56;5026901;28;20025;-78
2022/01/03 06:34:48;;;;;;;45.42;24.83;;;;;;;0.94;72.50;95703.00;5026564;28;20283;-78
2022/01/03 06:37:14;;;;;;;43.95;23.23;;;;;;;1.01;72.16;95701.63;5008710;28;20029;-78
2022/01/03 06:39:39;;;;;;;46.53;25.30;;;;;;;0.98;71.62;95701.84;4992615;28;20409;-76
2022/01/03 06:42:05;;;;;;;45.25;24.35;;;;;;;0.88;73.21;95706.09;5026319;28;20040;-75
2022/01/03 06:44:30;;;;;;;44.72;24.73;;;;;;;0.96;72.58;95706.38;5026263;28;20029;-74
2022/01/03 06:46:55;;;;;;;38.78;22.33;;;;;;;1.09;72.16;95696.63;5009692;28;20021;-76
2022/01/03 06:49:21;;;;;;;35.80;21.48;;;;;;;1.11;71.75;95694.69;5011767;28;20028;-82
2022/01/03 06:51:46;;;;;;;34.72;21.98;;;;;;;1.24;71.27;95699.09;5030182;28;20054;-77
2022/01/03 06:54:12;;;;;;;41.42;22.33;;;;;;;1.41;70.44;95697.84;5029504;28;20032;-76
2022/01/03 06:56:38;;;;;;;42.55;24.95;;;;;;;1.45;70.17;95691.34;5011051;28;20045;-77
2022/01/03 06:59:03;;;;;;;50.88;27.75;;;;;;;1.55;71.12;95694.16;5009848;28;20041;-77
2022/01/03 07:01:29;;;;;;;47.45;25.15;;;;;;;1.70;71.00;95691.34;5026581;28;20033;-78
2022/01/03 07:03:54;;;;;;;45.10;25.25;;;;;;;1.75;71.58;95691.84;5026775;28;20030;-76
2022/01/03 07:06:20;;;;;;;47.45;27.73;;;;;;;1.77;70.70;95694.38;5026380;28;20026;-77
2022/01/03 07:08:45;;;;;;;46.72;27.25;;;;;;;1.94;70.53;95698.38;5008765;28;20822;-76
2022/01/03 07:11:11;;;;;;;44.80;24.42;;;;;;;1.99;69.77;95693.56;5008634;28;20488;-76
2022/01/03 07:13:44;;;;;;;42.05;22.63;;;;;;;2.12;68.95;95688.19;5025825;28;20103;-78
2022/01/03 07:18:56;;;;;;;43.42;24.35;;;;;;;2.28;67.64;95677.25;5011095;28;20095;-77
2022/01/03 07:21:28;;;;;;;41.25;22.85;;;;;;;2.37;67.58;95680.97;5026298;28;20064;-76
2022/01/03 07:23:54;;;;;;;42.92;24.65;;;;;;;2.44;67.36;95674.25;5008227;28;20026;-76
2022/01/03 07:26:20;;;;;;;43.20;23.58;;;;;;;2.71;66.74;95666.88;5025815;28;20582;-78
2022/01/03 07:28:45;;;;;;;40.92;24.55;;;;;;;2.75;66.60;95667.47;5026254;28;20033;-77
2022/01/03 07:31:11;;;;;;;43.72;25.42;;;;;;;2.80;66.83;95667.97;5008363;28;20025;-76
2022/01/03 07:33:36;;;;;;;38.42;23.60;;;;;;;2.89;66.81;95672.50;5025743;28;20048;-78
2022/01/03 07:36:02;;;;;;;37.65;23.13;;;;;;;2.96;66.82;95681.66;5008166;28;20515;-77
2022/01/03 07:38:27;;;;;;;42.60;22.83;;;;;;;3.01;66.49;95673.34;5008174;28;20104;-78
2022/01/03 07:40:53;;;;;;;40.08;22.17;;;;;;;3.00;66.40;95684.91;5026273;28;20026;-76
2022/01/03 07:43:18;;;;;;;38.67;23.67;;;;;;;3.05;66.31;95690.66;5025857;28;20044;-76
2022/01/03 07:45:44;;;;;;;41.30;23.70;;;;;;;2.94;66.88;95683.59;5026372;28;20029;-78
2022/01/03 07:48:09;;;;;;;39.58;23.63;;;;;;;3.00;66.49;95684.06;5008167;28;20416;-78
2022/01/03 07:50:35;;;;;;;38.22;23.58;;;;;;;3.14;66.18;95678.50;5025732;28;20189;-76
2022/01/03 07:53:00;;;;;;;40.90;24.20;;;;;;;3.25;65.95;95676.75;5025888;28;20404;-78
2022/01/03 07:55:26;;;;;;;37.50;23.15;;;;;;;3.56;64.50;95661.81;5025415;28;20026;-76
2022/01/03 07:57:52;;;;;;;50.45;26.50;;;;;;;3.80;64.48;95668.72;5025549;28;20026;-76
2022/01/03 08:00:17;;;;;;;48.72;27.58;;;;;;;3.94;64.54;95664.03;4992042;28;20032;-77
2022/01/03 08:02:43;;;;;;;52.83;30.15;;;;;;;4.06;65.21;95655.03;5025265;28;20377;-76
2022/01/03 08:05:10;;;;;;;59.30;32.40;;;;;;;4.33;65.01;95651.00;4991612;28;20053;-78
2022/01/03 08:07:35;;;;;;;52.40;31.60;;;;;;;4.60;65.39;95672.63;5025459;28;20064;-78
2022/01/03 08:10:02;;;;;;;55.05;33.28;;;;;;;4.77;64.23;95667.66;5025543;28;20091;-77
2022/01/03 08:12:28;;;;;;;48.67;31.88;;;;;;;4.88;63.21;95666.69;5025410;28;20025;-77
2022/01/03 08:14:53;;;;;;;50.75;31.45;;;;;;;5.04;63.28;95666.19;4991597;28;20049;-77
2022/01/03 08:17:19;;;;;;;50.60;30.90;;;;;;;5.21;63.24;95672.63;5025746;28;20025;-77
2022/01/03 08:19:44;;;;;;;53.17;32.00;;;;;;;5.38;63.24;95672.94;5007686;28;20021;-77
2022/01/03 08:22:09;;;;;;;56.65;30.95;;;;;;;5.62;64.14;95683.19;5025816;28;20037;-78
2022/01/03 08:24:35;;;;;;;47.45;29.92;;;;;;;5.62;64.30;95680.53;5025383;28;20022;-76
2022/01/03 08:27:00;;;;;;;51.15;29.92;;;;;;;5.65;64.12;95666.09;5028909;28;20041;-76
2022/01/03 08:29:26;;;;;;;48.15;31.58;;;;;;;5.69;64.35;95672.81;5029117;28;20037;-80
2022/01/03 08:31:51;;;;;;;53.63;31.95;;;;;;;5.80;64.71;95672.66;5028919;28;20454;-76
2022/01/03 08:34:17;;;;;;;49.05;30.65;;;;;;;5.98;64.72;95673.78;5029136;28;20574;-77
2022/01/03 08:36:43;;;;;;;49.63;32.42;;;;;;;6.14;64.15;95667.91;5028469;28;20484;-77
2022/01/03 08:39:09;;;;;;;50.85;31.45;;;;;;;6.40;65.02;95657.44;5011225;28;20048;-77
2022/01/03 08:41:35;;;;;;;48.63;30.42;;;;;;;6.35;64.94;95645.53;5010507;28;20404;-76
2022/01/03 08:44:00;;;;;;;46.75;29.38;;;;;;;6.32;64.83;95632.53;5011124;28;20424;-76
2022/01/03 08:46:26;;;;;;;48.65;30.38;;;;;;;6.34;65.19;95631.38;5028799;28;20040;-78
2022/01/03 08:48:52;;;;;;;46.50;30.65;;;;;;;6.27;65.69;95625.78;5028452;28;20052;-76
2022/01/03 08:51:17;;;;;;;56.55;32.25;;;;;;;6.17;66.74;95625.81;5011089;28;20036;-77
2022/01/03 08:53:42;;;;;;;52.83;32.30;;;;;;;6.19;66.58;95628.31;5028746;28;20021;-77
2022/01/03 08:56:08;;;;;;;51.33;33.65;;;;;;;6.07;66.61;95630.34;5028494;28;20385;-77
2022/01/03 08:58:33;;;;;;;54.95;35.17;;;;;;;6.16;66.21;95625.94;5010706;28;20091;-77
2022/01/03 09:00:59;;;;;;;57.70;35.55;;;;;;;6.20;66.17;95624.69;5011217;28;20036;-76
2022/01/03 09:03:24;;;;;;;53.55;33.60;;;;;;;6.35;65.85;95611.72;5028289;28;20034;-77
2022/01/03 09:05:51;;;;;;;54.05;36.10;;;;;;;6.49;65.77;95617.59;5028512;28;20025;-76
2022/01/03 09:08:17;;;;;;;58.58;35.03;;;;;;;6.67;65.44;95622.97;5011197;28;20086;-76
2022/01/03 09:10:43;;;;;;;61.67;37.47;;;;;;;6.71;65.67;95620.84;5010556;28;20026;-79
2022/01/03 09:13:08;;;;;;;57.28;36.78;;;;;;;6.73;65.75;95614.38;5010404;28;20129;-78
2022/01/03 09:15:34;;;;;;;58.67;37.00;;;;;;;6.86;66.29;95606.03;5028017;28;20045;-77
2022/01/03 09:17:59;;;;;;;53.63;35.08;;;;;;;7.04;65.75;95606.03;5010118;28;20025;-77
2022/01/03 09:20:25;;;;;;;56.97;34.75;;;;;;;7.32;65.41;95597.16;5028120;28;20400;-77
2022/01/03 09:22:54;;;;;;;50.00;31.92;;;;;;;7.53;64.70;95594.16;5010108;28;20400;-77
2022/01/03 09:30:48;;;;;;;34.65;23.42;;;;;;;7.65;64.03;95581.44;5028185;28;20052;-76
2022/01/03 09:33:14;;;;;;;33.47;22.50;;;;;;;7.78;63.47;95577.50;5028213;28;20465;-76
2022/01/03 09:35:43;;;;;;;40.47;24.88;;;;;;;7.85;63.40;95569.72;5028044;28;20029;-77
2022/01/03 09:38:08;;;;;;;44.72;23.52;;;;;;;7.85;63.94;95562.53;5027306;28;20546;-77
2022/01/03 09:40:34;;;;;;;37.90;23.55;;;;;;;7.94;64.15;95551.91;4993642;28;20029;-77
2022/01/03 09:43:00;;;;;;;39.90;26.48;;;;;;;8.03;64.57;95546.44;4993901;28;20021;-76
2022/01/03 09:45:27;;;;;;;45.38;29.00;;;;;;;8.14;64.69;95545.34;5027676;28;20033;-78
2022/01/03 09:47:53;;;;;;;45.95;30.27;;;;;;;8.22;64.66;95539.19;5027474;28;20564;-76
2022/01/03 09:50:21;;;;;;;44.08;29.55;;;;;;;8.10;64.74;95540.47;4993560;28;20091;-77
2022/01/03 09:52:47;;;;;;;46.88;31.00;;;;;;;8.08;64.77;95532.63;5010418;28;20021;-77
2022/01/03 09:55:13;;;;;;;49.67;29.60;;;;;;;8.01;65.71;95540.41;5009320;28;20033;-77
2022/01/03 09:57:38;;;;;;;44.83;29.15;;;;;;;8.04;65.26;95534.75;4993576;28;20030;-76
2022/01/03 10:00:06;;;;;;;50.30;30.58;;;;;;;8.07;65.00;95530.94;5009535;28;20040;-75
2022/01/03 10:02:32;;;;;;;47.90;29.60;;;;;;;8.09;64.78;95520.09;5009747;28;20034;-77
2022/01/03 10:04:59;;;;;;;39.63;27.33;;;;;;;8.08;64.71;95518.41;5027241;28;20450;-77
2022/01/03 10:07:24;;;;;;;41.83;27.77;;;;;;;8.14;64.67;95515.13;5009784;28;20059;-76
2022/01/03 10:09:50;;;;;;;44.60;27.17;;;;;;;8.19;64.80;95517.31;5009657;28;20030;-77
2022/01/03 10:12:16;;;;;;;39.33;26.27;;;;;;;8.27;64.95;95512.03;4992644;28;20102;-78
2022/01/03 10:14:42;;;;;;;44.55;27.50;;;;;;;8.39;65.34;95501.84;5027263;28;20037;-76
2022/01/03 10:17:07;;;;;;;42.30;26.77;;;;;;;8.43;65.72;95497.03;5009167;28;20031;-77
2022/01/03 10:19:54;;;;;;;39.60;25.83;;;;;;;8.55;64.58;95498.44;5027267;28;20030;-77
2022/01/03 10:22:26;;;;;;;35.63;23.67;;;;;;;8.58;64.13;95494.59;5008880;28;20029;-77
2022/01/03 10:24:52;;;;;;;38.95;24.45;;;;;;;8.59;63.94;95488.25;4994470;28;20033;-77
2022/01/03 10:27:19;;;;;;;37.55;23.00;;;;;;;8.63;64.02;95482.41;5009227;28;20386;-78
2022/01/03 10:29:57;;;;;;;38.67;23.50;;;;;;;8.68;64.18;95479.25;5008966;28;20618;-78
2022/01/03 10:32:30;;;;;;;39.33;23.08;;;;;;;8.76;63.87;95471.25;5026585;28;20041;-77
2022/01/03 10:34:58;;;;;;;36.90;23.73;;;;;;;8.82;63.59;95458.22;5026852;28;20060;-76
2022/01/03 10:37:35;;;;;;;33.13;22.52;;;;;;;8.86;63.79;95454.22;4992525;28;20111;-76
2022/01/03 10:40:17;;;;;;;36.65;23.88;;;;;;;8.96;63.98;95462.06;5009306;28;20017;-76
2022/01/03 10:42:43;;;;;;;37.35;24.02;;;;;;;9.01;63.87;95449.03;5009107;28;20060;-78
2022/01/03 10:45:08;;;;;;;34.75;22.67;;;;;;;9.08;64.27;95442.00;5026481;28;20037;-77
2022/01/03 10:47:34;;;;;;;37.60;23.70;;;;;;;9.13;63.53;95430.81;5026219;28;20108;-77
2022/01/03 10:50:12;;;;;;;37.67;23.73;;;;;;;9.19;63.72;95423.97;5026255;28;20083;-76
2022/01/03 10:52:41;;;;;;;38.78;23.33;;;;;;;9.23;63.30;95418.09;5009056;28;20474;-77
2022/01/03 10:55:19;;;;;;;35.58;22.58;;;;;;;9.12;63.05;95407.72;5008638;28;20036;-77
2022/01/03 10:57:55;;;;;;;33.05;22.67;;;;;;;9.16;63.22;95409.06;5008595;28;20490;-77
2022/01/03 11:00:21;;;;;;;38.40;24.30;;;;;;;9.11;63.69;95414.06;5025965;28;20025;-80
2022/01/03 11:03:10;;;;;;;33.53;23.60;;;;;;;9.08;63.73;95409.91;5026231;28;20393;-77
2022/01/03 11:05:40;;;;;;;37.20;24.05;;;;;;;9.08;63.56;95404.56;5026539;28;20060;-76
2022/01/03 11:10:44;;;;;;;42.03;24.10;;;;;;;8.94;63.90;95395.38;5008248;28;20396;-78
2022/01/03 11:13:19;;;;;;;39.42;23.58;;;;;;;8.99;63.76;95390.34;5025843;28;20033;-79
2022/01/03 11:15:52;;;;;;;39.10;24.20;;;;;;;9.14;63.64;95385.13;4992302;28;20079;-77
2022/01/03 11:18:25;;;;;;;37.28;23.55;;;;;;;9.33;63.85;95374.25;5025967;28;20052;-77
2022/01/03 11:21:00;;;;;;;37.45;23.77;;;;;;;9.48;63.49;95374.41;4993145;28;20021;-79
2022/01/03 11:23:25;;;;;;;40.95;25.20;;;;;;;9.36;63.51;95369.41;5026036;28;20041;-76
2022/01/03 11:25:52;;;;;;;44.38;25.02;;;;;;;9.43;63.42;95364.16;5025893;28;20025;-78
2022/01/03 11:28:19;;;;;;;42.17;26.33;;;;;;;9.40;62.99;95362.69;5008801;28;20113;-78
2022/01/03 11:30:44;;;;;;;36.47;25.27;;;;;;;9.42;63.88;95356.31;4992005;28;20025;-77
2022/01/03 11:33:10;;;;;;;38.53;25.05;;;;;;;9.45;63.91;95350.63;5008583;28;20111;-77
2022/01/03 11:35:36;;;;;;;35.85;24.00;;;;;;;9.47;63.89;95348.59;4991889;28;20034;-78